Bw Everett — 9V2862 — position and weather

sailwx.info

Track history (hours):
 
Tides and Currents Weather Stations Pressure Air Temp Water Temp Dewpoint Dewpoint Depression Visibility Wind Speed Wind Dir Waves Ship Positions

Bw Everett

Last reported at 2018-Jul-08 12:19 UTC. Time now 2018-Jul-16 06:48 UTC.
Position N 40°34' W 068°58'.

Length 277 m; draft 9.9 m.

Type: Ship. MMSI: 564988000.

Date/timePositionNaut miles runAvg speedWind from/ knotsBaromVisibWave heightAir tempDewpointWater temp
2018-Jul-08 12:19N 40°34' W 068°58'1110.1
2018-Jul-08 11:16N 40°44' W 069°01'3 9.5
2018-Jul-08 10:57N 40°47' W 069°02'5 9.4
2018-Jul-08 10:23N 40°52' W 069°05'4 9.1
2018-Jul-08 09:59N 40°55' W 069°07'39 8.9
2018-Jul-08 05:37N 41°30' W 069°30'3 9.0
2018-Jul-08 05:20N 41°32' W 069°32'12 9.1
2018-Jul-08 03:58N 41°43' W 069°40'4 9.2
2018-Jul-08 03:30N 41°47' W 069°42'8 9.3
2018-Jul-08 02:39N 41°54' W 069°47'2 9.2
2018-Jul-08 02:25N 41°56' W 069°48'4 9.5
2018-Jul-08 02:00N 41°60' W 069°50'5 9.6
2018-Jul-08 01:30N 42°04' W 069°53'5 9.5
2018-Jul-08 01:00N 42°08' W 069°56'5 9.2
2018-Jul-08 00:30N 42°12' W 069°59'5 9.2
2018-Jul-07 23:59N 42°17' W 070°02'5 9.4
2018-Jul-07 23:30N 42°17' W 070°08'5 9.4
2018-Jul-07 23:00N 42°17' W 070°14'5 9.5
2018-Jul-07 22:30N 42°18' W 070°21'5 9.1
2018-Jul-07 22:00N 42°18' W 070°27'5 9.5
2018-Jul-07 21:30N 42°19' W 070°33'5 9.7
2018-Jul-07 21:00N 42°19' W 070°39'5 9.2
2018-Jul-07 20:30N 42°21' W 070°45'4 8.8
2018-Jul-07 20:00N 42°23' W 070°50'5 9.5
2018-Jul-07 19:30N 42°21' W 070°56'4 7.8
2018-Jul-07 19:00N 42°21' W 071°01'3 5.6
2018-Jul-07 18:30N 42°23' W 071°03'0 0.4
2018-Jul-07 17:57N 42°23' W 071°04'0 0.0
2018-Jul-07 17:27N 42°23' W 071°04'0 0.0
2018-Jul-07 16:57N 42°23' W 071°04'0 0.0
2018-Jul-07 16:27N 42°23' W 071°04'0 0.0
2018-Jul-07 15:57N 42°23' W 071°04'0 0.0
2018-Jul-07 15:28N 42°23' W 071°04'0 0.0
2018-Jul-07 14:58N 42°23' W 071°04'0 0.0
2018-Jul-07 14:29N 42°23' W 071°04'0 0.0
2018-Jul-07 13:59N 42°23' W 071°04'0 0.0
2018-Jul-07 13:29N 42°23' W 071°04'0 0.0
2018-Jul-07 12:59N 42°23' W 071°04'0 0.0
2018-Jul-07 12:29N 42°23' W 071°04'0 0.0
2018-Jul-07 11:59N 42°23' W 071°04'0 0.0
2018-Jul-07 11:29N 42°23' W 071°04'0 0.0
2018-Jul-07 10:59N 42°23' W 071°04'0 0.0
2018-Jul-07 10:30N 42°23' W 071°04'0 0.0
2018-Jul-07 10:00N 42°23' W 071°04'0 0.0
2018-Jul-07 09:30N 42°23' W 071°04'0 0.0
2018-Jul-07 09:00N 42°23' W 071°04'0 0.0
2018-Jul-07 08:30N 42°23' W 071°04'0 0.0
2018-Jul-07 08:00N 42°23' W 071°04'0 0.0
2018-Jul-07 07:30N 42°23' W 071°04'0 0.0
2018-Jul-07 07:00N 42°23' W 071°04'0 0.0
2018-Jul-07 06:30N 42°23' W 071°04'0 0.0
2018-Jul-07 06:00N 42°23' W 071°04'0 0.0
2018-Jul-07 05:30N 42°23' W 071°04'0 0.0
2018-Jul-07 05:00N 42°23' W 071°04'0 0.0
2018-Jul-07 04:30N 42°23' W 071°04'0 0.0
2018-Jul-07 04:00N 42°23' W 071°04'0 0.0
2018-Jul-07 03:30N 42°23' W 071°04'0 0.0
2018-Jul-07 03:00N 42°23' W 071°04'0 0.0
2018-Jul-07 02:25N 42°23' W 071°04'0 0.0
2018-Jul-07 01:57N 42°23' W 071°04'0 0.0
2018-Jul-07 01:27N 42°23' W 071°04'0 0.0
2018-Jul-07 00:57N 42°23' W 071°04'0 0.0
2018-Jul-07 00:27N 42°23' W 071°04'0 0.0
2018-Jul-06 23:57N 42°23' W 071°04'0 0.0
2018-Jul-06 23:27N 42°23' W 071°04'0 0.0
2018-Jul-06 22:57N 42°23' W 071°04'0 0.0
2018-Jul-06 22:27N 42°23' W 071°04'0 0.0
2018-Jul-06 21:57N 42°23' W 071°04'0 0.0
2018-Jul-06 21:27N 42°23' W 071°04'0 0.0
2018-Jul-06 20:57N 42°23' W 071°04'0 0.0
2018-Jul-06 20:27N 42°23' W 071°04'0 0.0
2018-Jul-06 19:57N 42°23' W 071°04'0 0.0
2018-Jul-06 19:25N 42°23' W 071°04'0 0.0
2018-Jul-06 18:57N 42°23' W 071°04'0 0.0
2018-Jul-06 18:27N 42°23' W 071°04'0 0.0
2018-Jul-06 17:57N 42°23' W 071°04'0 0.0
2018-Jul-06 17:27N 42°23' W 071°04'0 0.0
2018-Jul-06 16:57N 42°23' W 071°04'0 0.0
2018-Jul-06 16:27N 42°23' W 071°04'0 0.0
2018-Jul-06 15:57N 42°23' W 071°04'0 0.0
2018-Jul-06 15:25N 42°23' W 071°04'0 0.0
2018-Jul-06 14:57N 42°23' W 071°04'0 0.0
2018-Jul-06 14:27N 42°23' W 071°04'0 0.0
2018-Jul-06 13:57N 42°23' W 071°04'0 0.0
2018-Jul-06 13:27N 42°23' W 071°04'0 0.0
2018-Jul-06 12:57N 42°23' W 071°04'0 0.0
2018-Jul-06 12:27N 42°23' W 071°04'0 0.0
2018-Jul-06 12:00N 42°23' W 071°04'1 1.6
2018-Jul-06 11:30N 42°23' W 071°03'1 3.0
2018-Jul-06 11:00N 42°22' W 071°03'3 5.7
2018-Jul-06 10:30N 42°20' W 070°59'3 6.8
2018-Jul-06 10:00N 42°22' W 070°55'2 4.7
2018-Jul-06 09:30N 42°23' W 070°53'2 5.0
2018-Jul-06 09:00N 42°24' W 070°50'1 2.9
2018-Jul-06 08:30N 42°25' W 070°48'1 2.7
2018-Jul-06 07:58N 42°25' W 070°50'0 0.0
2018-Jul-06 07:28N 42°25' W 070°50'0 0.0
2018-Jul-06 06:58N 42°25' W 070°50'0 0.1
2018-Jul-06 06:28N 42°25' W 070°50'0 0.0
2018-Jul-06 05:58N 42°25' W 070°50'0 0.0
2018-Jul-06 05:28N 42°25' W 070°50'0 0.0
2018-Jul-06 04:58N 42°25' W 070°50'0 0.0
2018-Jul-06 04:28N 42°25' W 070°50'0 0.0
2018-Jul-06 03:58N 42°25' W 070°50'0 0.0
2018-Jul-06 03:28N 42°25' W 070°50'0 0.0
2018-Jul-06 02:58N 42°25' W 070°50'0 0.0
2018-Jul-06 02:28N 42°25' W 070°50'0 0.0
2018-Jul-06 01:58N 42°25' W 070°50'0 0.0
2018-Jul-06 01:28N 42°25' W 070°50'0 0.0
2018-Jul-06 00:58N 42°25' W 070°50'0 0.0
2018-Jul-06 00:28N 42°25' W 070°50'0 0.0
2018-Jul-05 23:58N 42°25' W 070°50'0 0.0
2018-Jul-05 23:28N 42°25' W 070°50'0 0.0
2018-Jul-05 22:58N 42°25' W 070°50'0 0.0
2018-Jul-05 22:28N 42°25' W 070°50'0 0.0
2018-Jul-05 21:58N 42°25' W 070°50'0 0.0
2018-Jul-05 21:25N 42°25' W 070°50'0 0.0
2018-Jul-05 20:55N 42°25' W 070°50'0 0.0
2018-Jul-05 20:28N 42°25' W 070°50'0 0.0
2018-Jul-05 19:58N 42°25' W 070°50'0 0.0
2018-Jul-05 19:28N 42°25' W 070°50'0 0.0
2018-Jul-05 18:58N 42°25' W 070°50'0 0.1
2018-Jul-05 18:28N 42°25' W 070°50'0 0.0
2018-Jul-05 17:58N 42°25' W 070°50'0 0.1
2018-Jul-05 17:28N 42°25' W 070°50'0 0.0
2018-Jul-05 16:55N 42°25' W 070°50'0 0.0
2018-Jul-05 16:25N 42°25' W 070°50'0 0.0
2018-Jul-05 15:58N 42°25' W 070°50'0 0.0
2018-Jul-05 15:28N 42°25' W 070°50'0 0.0
2018-Jul-05 14:58N 42°25' W 070°50'0 0.1
2018-Jul-05 13:58N 42°25' W 070°50'0 0.2
2018-Jul-05 13:28N 42°25' W 070°50'0 0.0
2018-Jul-05 12:55N 42°25' W 070°50'0 0.0
2018-Jul-05 12:19N 42°25' W 070°50'0 0.0
2018-Jul-05 11:58N 42°25' W 070°50'0 0.0
2018-Jul-05 11:28N 42°25' W 070°50'0 0.0
2018-Jul-05 10:58N 42°25' W 070°50'0 0.0
2018-Jul-05 10:28N 42°25' W 070°50'0 0.0
2018-Jul-05 09:58N 42°25' W 070°50'0 0.0
2018-Jul-05 09:28N 42°25' W 070°50'0 0.0
2018-Jul-05 08:46N 42°25' W 070°50'0 0.1
2018-Jul-05 08:25N 42°25' W 070°50'0 0.0
2018-Jul-05 07:58N 42°25' W 070°50'0 0.1
2018-Jul-05 07:25N 42°25' W 070°50'0 0.1
2018-Jul-05 06:55N 42°25' W 070°50'0 0.0
2018-Jul-05 06:28N 42°25' W 070°50'0 0.0
2018-Jul-05 05:58N 42°25' W 070°50'0 0.0
2018-Jul-05 05:28N 42°25' W 070°50'0 0.0
2018-Jul-05 04:52N 42°25' W 070°50'0 0.0
2018-Jul-05 04:28N 42°25' W 070°50'0 0.0
2018-Jul-05 03:55N 42°25' W 070°50'0 0.1
2018-Jul-05 03:25N 42°25' W 070°50'0 0.1
2018-Jul-05 02:55N 42°25' W 070°50'0 0.0
2018-Jul-05 02:28N 42°25' W 070°50'0 0.0
2018-Jul-05 01:55N 42°25' W 070°50'0 0.2
2018-Jul-05 01:28N 42°25' W 070°50'0 0.1
2018-Jul-05 00:58N 42°25' W 070°50'0 0.0
2018-Jul-05 00:28N 42°25' W 070°50'0 0.0
2018-Jul-04 23:58N 42°25' W 070°50'0 0.0
2018-Jul-04 23:28N 42°25' W 070°50'0 0.1
2018-Jul-04 22:58N 42°25' W 070°50'0 0.1
2018-Jul-04 22:28N 42°25' W 070°50'0 0.1
2018-Jul-04 21:58N 42°25' W 070°50'0 0.0
2018-Jul-04 21:28N 42°25' W 070°50'0 0.1
2018-Jul-04 20:55N 42°25' W 070°50'0 0.1
2018-Jul-04 20:28N 42°25' W 070°50'0 0.0
2018-Jul-04 19:55N 42°25' W 070°50'0 0.0
2018-Jul-04 19:25N 42°25' W 070°50'0 0.0
2018-Jul-04 18:58N 42°25' W 070°50'0 0.0
2018-Jul-04 18:28N 42°25' W 070°50'0 0.0
2018-Jul-04 17:58N 42°25' W 070°50'0 0.0
2018-Jul-04 17:28N 42°25' W 070°50'0 0.0
2018-Jul-04 16:58N 42°25' W 070°50'0 0.0
2018-Jul-04 16:25N 42°25' W 070°50'0 0.0
2018-Jul-04 15:58N 42°25' W 070°50'0 0.0
2018-Jul-04 15:28N 42°25' W 070°50'0 0.1
2018-Jul-04 14:58N 42°25' W 070°50'0 0.3
2018-Jul-04 14:28N 42°25' W 070°50'0 0.2
2018-Jul-04 13:58N 42°25' W 070°50'0 0.0
2018-Jul-04 13:28N 42°25' W 070°50'0 0.0
2018-Jul-04 12:58N 42°25' W 070°50'0 0.0
2018-Jul-04 12:28N 42°25' W 070°50'0 0.0
2018-Jul-04 11:58N 42°25' W 070°50'0 0.0
2018-Jul-04 11:28N 42°25' W 070°50'0 0.0
2018-Jul-04 10:58N 42°25' W 070°50'0 0.0
2018-Jul-04 10:28N 42°25' W 070°50'0 0.0
2018-Jul-04 09:58N 42°25' W 070°50'0 0.1
2018-Jul-04 09:28N 42°25' W 070°50'0 0.2
2018-Jul-04 08:58N 42°25' W 070°50'0 0.2
2018-Jul-04 08:28N 42°25' W 070°50'0 0.1
2018-Jul-04 07:58N 42°25' W 070°50'0 0.2
2018-Jul-04 07:28N 42°25' W 070°50'0 0.1
2018-Jul-04 06:58N 42°25' W 070°50'0 0.0
2018-Jul-04 06:28N 42°25' W 070°50'0 0.1
2018-Jul-04 05:58N 42°25' W 070°50'0 0.1
2018-Jul-04 05:28N 42°25' W 070°50'0 0.0
2018-Jul-04 04:58N 42°25' W 070°50'0 0.0
2018-Jul-04 04:28N 42°25' W 070°50'0 0.0
2018-Jul-04 03:58N 42°25' W 070°50'0 0.0
2018-Jul-04 03:25N 42°25' W 070°50'0 0.0
2018-Jul-04 02:58N 42°25' W 070°50'0 0.0
2018-Jul-04 02:25N 42°25' W 070°50'0 0.0
2018-Jul-04 01:58N 42°25' W 070°50'0 0.0
2018-Jul-04 01:28N 42°25' W 070°50'0 0.0
2018-Jul-04 00:58N 42°25' W 070°50'0 0.0
2018-Jul-04 00:28N 42°25' W 070°50'0 0.0
2018-Jul-03 23:58N 42°25' W 070°50'0 0.0
2018-Jul-03 23:28N 42°25' W 070°50'0 0.0
2018-Jul-03 22:58N 42°25' W 070°50'0 0.1
2018-Jul-03 22:28N 42°25' W 070°50'0 0.1
2018-Jul-03 22:00N 42°25' W 070°50'0 0.0
2018-Jul-03 21:30N 42°25' W 070°50'0 0.0
2018-Jul-03 21:00N 42°25' W 070°50'0 0.0
2018-Jul-03 20:30N 42°25' W 070°50'0 0.0
2018-Jul-03 20:00N 42°25' W 070°50'0 0.1
2018-Jul-03 19:30N 42°25' W 070°50'0 0.1
2018-Jul-03 19:00N 42°25' W 070°50'0 0.1
2018-Jul-03 18:30N 42°25' W 070°50'0 0.0
2018-Jul-03 17:54N 42°25' W 070°50'0 0.0
2018-Jul-03 17:30N 42°25' W 070°50'0 0.0
2018-Jul-03 17:00N 42°25' W 070°50'0 0.0
2018-Jul-03 16:30N 42°25' W 070°50'0 0.0
2018-Jul-03 16:00N 42°25' W 070°50'0 0.0
2018-Jul-03 15:30N 42°25' W 070°50'0 0.1
2018-Jul-03 15:00N 42°25' W 070°50'0 0.3
2018-Jul-03 14:30N 42°25' W 070°50'0 0.0
2018-Jul-03 14:00N 42°25' W 070°50'0 0.0
2018-Jul-03 13:27N 42°25' W 070°50'0 0.0
2018-Jul-03 13:00N 42°25' W 070°50'0 0.0
2018-Jul-03 12:30N 42°25' W 070°50'0 0.0
2018-Jul-03 12:00N 42°25' W 070°50'0 0.0
2018-Jul-03 11:30N 42°25' W 070°50'0 0.0
2018-Jul-03 11:00N 42°25' W 070°50'0 0.0
2018-Jul-03 10:30N 42°25' W 070°50'0 0.0
2018-Jul-03 10:00N 42°25' W 070°50'0 0.0
2018-Jul-03 09:30N 42°25' W 070°50'0 0.0
2018-Jul-03 09:00N 42°25' W 070°50'0 0.0
2018-Jul-03 08:28N 42°25' W 070°50'0 0.0
2018-Jul-03 07:58N 42°25' W 070°50'0 0.0
2018-Jul-03 07:28N 42°25' W 070°50'0 0.0
2018-Jul-03 06:55N 42°25' W 070°50'0 0.0
2018-Jul-03 06:28N 42°25' W 070°50'0 0.0
2018-Jul-03 05:58N 42°25' W 070°50'0 0.0
2018-Jul-03 05:25N 42°25' W 070°50'0 0.0
2018-Jul-03 04:58N 42°25' W 070°50'0 0.0
2018-Jul-03 04:28N 42°25' W 070°50'0 0.0
2018-Jul-03 03:58N 42°25' W 070°50'0 0.0
2018-Jul-03 03:28N 42°25' W 070°50'0 0.0
2018-Jul-03 02:58N 42°25' W 070°50'0 0.0
2018-Jul-03 02:28N 42°25' W 070°50'0 0.0
2018-Jul-03 01:58N 42°25' W 070°50'0 0.0
2018-Jul-03 01:25N 42°25' W 070°50'0 0.0
2018-Jul-03 00:58N 42°25' W 070°50'0 0.0
2018-Jul-03 00:28N 42°25' W 070°50'0 0.0
2018-Jul-02 23:58N 42°25' W 070°50'0 0.0
2018-Jul-02 23:28N 42°25' W 070°50'0 0.0
2018-Jul-02 22:58N 42°25' W 070°50'0 0.0
2018-Jul-02 22:25N 42°25' W 070°50'0 0.0
2018-Jul-02 21:58N 42°25' W 070°50'0 0.2
2018-Jul-02 21:25N 42°25' W 070°50'0 0.0
2018-Jul-02 20:58N 42°25' W 070°50'0 0.0
2018-Jul-02 20:28N 42°25' W 070°50'0 0.0
2018-Jul-02 19:58N 42°25' W 070°50'0 0.0
2018-Jul-02 19:28N 42°25' W 070°50'0 0.0
2018-Jul-02 18:58N 42°25' W 070°50'0 0.0
2018-Jul-02 18:28N 42°25' W 070°50'0 0.0
2018-Jul-02 17:58N 42°25' W 070°50'0 0.0
2018-Jul-02 17:28N 42°25' W 070°50'0 0.0
2018-Jul-02 16:58N 42°25' W 070°50'0 0.0
2018-Jul-02 16:28N 42°25' W 070°50'0 0.0
2018-Jul-02 15:58N 42°25' W 070°50'0 0.0
2018-Jul-02 15:28N 42°25' W 070°50'0 0.0
2018-Jul-02 14:58N 42°25' W 070°50'0 0.0
2018-Jul-02 14:28N 42°25' W 070°50'0 0.0
2018-Jul-02 13:58N 42°25' W 070°50'0 0.0
2018-Jul-02 13:28N 42°25' W 070°50'0 0.1
2018-Jul-02 12:58N 42°25' W 070°50'0 0.2
2018-Jul-02 12:28N 42°25' W 070°50'0 0.3
2018-Jul-02 11:58N 42°25' W 070°50'0 0.1
2018-Jul-02 11:28N 42°25' W 070°50'0 0.1
2018-Jul-02 10:58N 42°25' W 070°50'0 0.0
2018-Jul-02 10:25N 42°25' W 070°50'0 0.0
2018-Jul-02 09:58N 42°25' W 070°50'0 0.1
2018-Jul-02 09:28N 42°25' W 070°50'0 0.1
2018-Jul-02 08:58N 42°25' W 070°50'0 0.1
2018-Jul-02 08:28N 42°25' W 070°50'0 0.1
2018-Jul-02 07:58N 42°25' W 070°50'0 0.1
2018-Jul-02 07:29N 42°25' W 070°50'0 0.0
2018-Jul-02 06:58N 42°25' W 070°50'0 0.0
2018-Jul-02 06:30N 42°25' W 070°50'0 0.0
2018-Jul-02 06:00N 42°25' W 070°50'0 0.0
2018-Jul-02 05:30N 42°25' W 070°50'0 0.0
2018-Jul-02 05:00N 42°25' W 070°50'0 0.0
2018-Jul-02 04:28N 42°25' W 070°50'0 0.0
2018-Jul-02 04:00N 42°25' W 070°50'0 0.0
2018-Jul-02 03:30N 42°25' W 070°50'0 0.0
2018-Jul-02 03:00N 42°25' W 070°50'0 0.0
2018-Jul-02 02:30N 42°25' W 070°50'0 0.0
2018-Jul-02 02:00N 42°25' W 070°50'0 0.0
2018-Jul-02 01:30N 42°25' W 070°50'0 0.2
2018-Jul-02 01:00N 42°25' W 070°50'0 0.1
2018-Jul-02 00:30N 42°25' W 070°50'0 0.0
2018-Jul-02 00:00N 42°25' W 070°50'0 0.0
2018-Jul-01 23:28N 42°25' W 070°50'0 0.0
2018-Jul-01 23:00N 42°25' W 070°50'0 0.0
2018-Jul-01 22:30N 42°25' W 070°50'0 0.0
2018-Jul-01 22:00N 42°25' W 070°50'0 0.0
2018-Jul-01 21:24N 42°25' W 070°50'0 0.0
2018-Jul-01 20:58N 42°25' W 070°50'0 0.0
2018-Jul-01 20:30N 42°25' W 070°50'0 0.1
2018-Jul-01 20:00N 42°25' W 070°50'0 0.0
2018-Jul-01 19:30N 42°25' W 070°50'0 0.0
2018-Jul-01 19:00N 42°25' W 070°50'0 0.0
2018-Jul-01 18:30N 42°25' W 070°50'0 0.0
2018-Jul-01 17:55N 42°25' W 070°50'0 0.0
2018-Jul-01 17:30N 42°25' W 070°50'0 0.0
2018-Jul-01 16:57N 42°25' W 070°50'0 0.0
2018-Jul-01 16:30N 42°25' W 070°50'0 0.0
2018-Jul-01 16:00N 42°25' W 070°50'0 0.0
2018-Jul-01 15:30N 42°25' W 070°50'0 0.0
2018-Jul-01 15:00N 42°25' W 070°50'0 0.1
2018-Jul-01 14:30N 42°25' W 070°50'0 0.1
2018-Jul-01 14:00N 42°25' W 070°50'0 0.1
2018-Jul-01 13:30N 42°25' W 070°50'0 0.1
2018-Jul-01 13:00N 42°25' W 070°50'0 0.0
2018-Jul-01 12:30N 42°25' W 070°50'0 0.0
2018-Jul-01 12:00N 42°25' W 070°50'0 0.0
2018-Jul-01 11:30N 42°25' W 070°50'0 0.0
2018-Jul-01 11:00N 42°25' W 070°50'0 0.0
2018-Jul-01 10:30N 42°25' W 070°50'0 0.0
2018-Jul-01 10:00N 42°25' W 070°50'0 0.0
2018-Jul-01 09:30N 42°25' W 070°50'0 0.0
2018-Jul-01 09:00N 42°25' W 070°50'0 0.0
2018-Jul-01 08:30N 42°25' W 070°50'0 0.0
2018-Jul-01 08:00N 42°25' W 070°50'0 0.0
2018-Jul-01 07:30N 42°25' W 070°50'0 0.0
2018-Jul-01 07:00N 42°25' W 070°50'0 0.0
2018-Jul-01 06:30N 42°25' W 070°50'0 0.0
2018-Jul-01 06:00N 42°25' W 070°50'0 0.0
2018-Jul-01 05:30N 42°25' W 070°50'0 0.0
2018-Jul-01 05:00N 42°25' W 070°50'0 0.0
2018-Jul-01 04:30N 42°25' W 070°50'0 0.0
2018-Jul-01 04:00N 42°25' W 070°50'0 0.1
2018-Jul-01 03:30N 42°25' W 070°50'0 0.0
2018-Jul-01 02:59N 42°25' W 070°50'0 0.0
2018-Jul-01 02:29N 42°25' W 070°50'0 0.0
2018-Jul-01 01:59N 42°25' W 070°50'0 0.0
2018-Jul-01 01:29N 42°25' W 070°50'0 0.1
2018-Jul-01 00:54N 42°25' W 070°50'0 0.0
2018-Jul-01 00:30N 42°25' W 070°50'0 0.0
2018-Jul-01 00:00N 42°25' W 070°50'0 0.1
2018-Jun-30 23:29N 42°25' W 070°50'0 0.0
2018-Jun-30 22:59N 42°25' W 070°50'0 0.0
2018-Jun-30 22:29N 42°25' W 070°50'0 0.0
2018-Jun-30 21:59N 42°25' W 070°50'0 0.0
2018-Jun-30 21:27N 42°25' W 070°50'0 0.0
2018-Jun-30 20:59N 42°25' W 070°50'0 0.0
2018-Jun-30 20:29N 42°25' W 070°50'0 0.0
2018-Jun-30 19:59N 42°25' W 070°50'0 0.0
2018-Jun-30 19:29N 42°25' W 070°50'0 0.0
2018-Jun-30 18:59N 42°25' W 070°50'0 0.0
2018-Jun-30 18:29N 42°25' W 070°50'0 0.0
2018-Jun-30 17:59N 42°25' W 070°50'0 0.0
2018-Jun-30 17:30N 42°25' W 070°50'0 0.1
2018-Jun-30 17:00N 42°25' W 070°50'0 0.2
2018-Jun-30 16:29N 42°25' W 070°50'0 0.2
2018-Jun-30 16:00N 42°25' W 070°50'2 4.8
2018-Jun-30 15:30N 42°24' W 070°47'5 9.4
2018-Jun-30 15:00N 42°22' W 070°41'5 9.5
2018-Jun-30 14:30N 42°22' W 070°35'5 9.5
2018-Jun-30 14:00N 42°21' W 070°28'5 9.7
2018-Jun-30 13:30N 42°21' W 070°22'5 9.7
2018-Jun-30 13:00N 42°20' W 070°15'5 9.4
2018-Jun-30 12:30N 42°20' W 070°09'5 9.4
2018-Jun-30 12:00N 42°20' W 070°03'4 8.4
2018-Jun-30 11:30N 42°17' W 069°58'5 9.4
2018-Jun-30 11:00N 42°13' W 069°55'5 9.7
2018-Jun-30 10:30N 42°09' W 069°53'5 9.3
2018-Jun-30 10:00N 42°04' W 069°50'4 7.3
2018-Jun-30 09:30N 42°01' W 069°48'4 7.1
2018-Jun-30 09:00N 41°58' W 069°45'4 7.2
2018-Jun-30 08:30N 41°55' W 069°43'5 7.2
2018-Jun-30 07:51N 41°51' W 069°40'3 7.4
2018-Jun-30 07:28N 41°48' W 069°38'4 7.3
2018-Jun-30 06:55N 41°45' W 069°35'5 7.2
2018-Jun-30 06:10N 41°40' W 069°33'1 7.4
2018-Jun-30 06:00N 41°39' W 069°32'4 7.9
2018-Jun-30 05:29N 41°35' W 069°30'  
Track history (hours):
 
Tides and Currents Weather Stations Pressure Air Temp Water Temp Dewpoint Dewpoint Depression Visibility Wind Speed Wind Dir Waves Ship Positions

Bw Everett

Last reported at 2018-Jul-08 12:19 UTC. Time now 2018-Jul-16 06:48 UTC.
Position N 40°34' W 068°58'.

Length 277 m; draft 9.9 m.

Type: Ship. MMSI: 564988000.

Date/timePositionNaut miles runAvg speedWind from/ knotsBaromVisibWave heightAir tempDewpointWater temp
2018-Jul-08 12:19N 40°34' W 068°58'1110.1
2018-Jul-08 11:16N 40°44' W 069°01'3 9.5
2018-Jul-08 10:57N 40°47' W 069°02'5 9.4
2018-Jul-08 10:23N 40°52' W 069°05'4 9.1
2018-Jul-08 09:59N 40°55' W 069°07'39 8.9
2018-Jul-08 05:37N 41°30' W 069°30'3 9.0
2018-Jul-08 05:20N 41°32' W 069°32'12 9.1
2018-Jul-08 03:58N 41°43' W 069°40'4 9.2
2018-Jul-08 03:30N 41°47' W 069°42'8 9.3
2018-Jul-08 02:39N 41°54' W 069°47'2 9.2
2018-Jul-08 02:25N 41°56' W 069°48'4 9.5
2018-Jul-08 02:00N 41°60' W 069°50'5 9.6
2018-Jul-08 01:30N 42°04' W 069°53'5 9.5
2018-Jul-08 01:00N 42°08' W 069°56'5 9.2
2018-Jul-08 00:30N 42°12' W 069°59'5 9.2
2018-Jul-07 23:59N 42°17' W 070°02'5 9.4
2018-Jul-07 23:30N 42°17' W 070°08'5 9.4
2018-Jul-07 23:00N 42°17' W 070°14'5 9.5
2018-Jul-07 22:30N 42°18' W 070°21'5 9.1
2018-Jul-07 22:00N 42°18' W 070°27'5 9.5
2018-Jul-07 21:30N 42°19' W 070°33'5 9.7
2018-Jul-07 21:00N 42°19' W 070°39'5 9.2
2018-Jul-07 20:30N 42°21' W 070°45'4 8.8
2018-Jul-07 20:00N 42°23' W 070°50'5 9.5
2018-Jul-07 19:30N 42°21' W 070°56'4 7.8
2018-Jul-07 19:00N 42°21' W 071°01'3 5.6
2018-Jul-07 18:30N 42°23' W 071°03'0 0.4
2018-Jul-07 17:57N 42°23' W 071°04'0 0.0
2018-Jul-07 17:27N 42°23' W 071°04'0 0.0
2018-Jul-07 16:57N 42°23' W 071°04'0 0.0
2018-Jul-07 16:27N 42°23' W 071°04'0 0.0
2018-Jul-07 15:57N 42°23' W 071°04'0 0.0
2018-Jul-07 15:28N 42°23' W 071°04'0 0.0
2018-Jul-07 14:58N 42°23' W 071°04'0 0.0
2018-Jul-07 14:29N 42°23' W 071°04'0 0.0
2018-Jul-07 13:59N 42°23' W 071°04'0 0.0
2018-Jul-07 13:29N 42°23' W 071°04'0 0.0
2018-Jul-07 12:59N 42°23' W 071°04'0 0.0
2018-Jul-07 12:29N 42°23' W 071°04'0 0.0
2018-Jul-07 11:59N 42°23' W 071°04'0 0.0
2018-Jul-07 11:29N 42°23' W 071°04'0 0.0
2018-Jul-07 10:59N 42°23' W 071°04'0 0.0
2018-Jul-07 10:30N 42°23' W 071°04'0 0.0
2018-Jul-07 10:00N 42°23' W 071°04'0 0.0
2018-Jul-07 09:30N 42°23' W 071°04'0 0.0
2018-Jul-07 09:00N 42°23' W 071°04'0 0.0
2018-Jul-07 08:30N 42°23' W 071°04'0 0.0
2018-Jul-07 08:00N 42°23' W 071°04'0 0.0
2018-Jul-07 07:30N 42°23' W 071°04'0 0.0
2018-Jul-07 07:00N 42°23' W 071°04'0 0.0
2018-Jul-07 06:30N 42°23' W 071°04'0 0.0
2018-Jul-07 06:00N 42°23' W 071°04'0 0.0
2018-Jul-07 05:30N 42°23' W 071°04'0 0.0
2018-Jul-07 05:00N 42°23' W 071°04'0 0.0
2018-Jul-07 04:30N 42°23' W 071°04'0 0.0
2018-Jul-07 04:00N 42°23' W 071°04'0 0.0
2018-Jul-07 03:30N 42°23' W 071°04'0 0.0
2018-Jul-07 03:00N 42°23' W 071°04'0 0.0
2018-Jul-07 02:25N 42°23' W 071°04'0 0.0
2018-Jul-07 01:57N 42°23' W 071°04'0 0.0
2018-Jul-07 01:27N 42°23' W 071°04'0 0.0
2018-Jul-07 00:57N 42°23' W 071°04'0 0.0
2018-Jul-07 00:27N 42°23' W 071°04'0 0.0
2018-Jul-06 23:57N 42°23' W 071°04'0 0.0
2018-Jul-06 23:27N 42°23' W 071°04'0 0.0
2018-Jul-06 22:57N 42°23' W 071°04'0 0.0
2018-Jul-06 22:27N 42°23' W 071°04'0 0.0
2018-Jul-06 21:57N 42°23' W 071°04'0 0.0
2018-Jul-06 21:27N 42°23' W 071°04'0 0.0
2018-Jul-06 20:57N 42°23' W 071°04'0 0.0
2018-Jul-06 20:27N 42°23' W 071°04'0 0.0
2018-Jul-06 19:57N 42°23' W 071°04'0 0.0
2018-Jul-06 19:25N 42°23' W 071°04'0 0.0
2018-Jul-06 18:57N 42°23' W 071°04'0 0.0
2018-Jul-06 18:27N 42°23' W 071°04'0 0.0
2018-Jul-06 17:57N 42°23' W 071°04'0 0.0
2018-Jul-06 17:27N 42°23' W 071°04'0 0.0
2018-Jul-06 16:57N 42°23' W 071°04'0 0.0
2018-Jul-06 16:27N 42°23' W 071°04'0 0.0
2018-Jul-06 15:57N 42°23' W 071°04'0 0.0
2018-Jul-06 15:25N 42°23' W 071°04'0 0.0
2018-Jul-06 14:57N 42°23' W 071°04'0 0.0
2018-Jul-06 14:27N 42°23' W 071°04'0 0.0
2018-Jul-06 13:57N 42°23' W 071°04'0 0.0
2018-Jul-06 13:27N 42°23' W 071°04'0 0.0
2018-Jul-06 12:57N 42°23' W 071°04'0 0.0
2018-Jul-06 12:27N 42°23' W 071°04'0 0.0
2018-Jul-06 12:00N 42°23' W 071°04'1 1.6
2018-Jul-06 11:30N 42°23' W 071°03'1 3.0
2018-Jul-06 11:00N 42°22' W 071°03'3 5.7
2018-Jul-06 10:30N 42°20' W 070°59'3 6.8
2018-Jul-06 10:00N 42°22' W 070°55'2 4.7
2018-Jul-06 09:30N 42°23' W 070°53'2 5.0
2018-Jul-06 09:00N 42°24' W 070°50'1 2.9
2018-Jul-06 08:30N 42°25' W 070°48'1 2.7
2018-Jul-06 07:58N 42°25' W 070°50'0 0.0
2018-Jul-06 07:28N 42°25' W 070°50'0 0.0
2018-Jul-06 06:58N 42°25' W 070°50'0 0.1
2018-Jul-06 06:28N 42°25' W 070°50'0 0.0
2018-Jul-06 05:58N 42°25' W 070°50'0 0.0
2018-Jul-06 05:28N 42°25' W 070°50'0 0.0
2018-Jul-06 04:58N 42°25' W 070°50'0 0.0
2018-Jul-06 04:28N 42°25' W 070°50'0 0.0
2018-Jul-06 03:58N 42°25' W 070°50'0 0.0
2018-Jul-06 03:28N 42°25' W 070°50'0 0.0
2018-Jul-06 02:58N 42°25' W 070°50'0 0.0
2018-Jul-06 02:28N 42°25' W 070°50'0 0.0
2018-Jul-06 01:58N 42°25' W 070°50'0 0.0
2018-Jul-06 01:28N 42°25' W 070°50'0 0.0
2018-Jul-06 00:58N 42°25' W 070°50'0 0.0
2018-Jul-06 00:28N 42°25' W 070°50'0 0.0
2018-Jul-05 23:58N 42°25' W 070°50'0 0.0
2018-Jul-05 23:28N 42°25' W 070°50'0 0.0
2018-Jul-05 22:58N 42°25' W 070°50'0 0.0
2018-Jul-05 22:28N 42°25' W 070°50'0 0.0
2018-Jul-05 21:58N 42°25' W 070°50'0 0.0
2018-Jul-05 21:25N 42°25' W 070°50'0 0.0
2018-Jul-05 20:55N 42°25' W 070°50'0 0.0
2018-Jul-05 20:28N 42°25' W 070°50'0 0.0
2018-Jul-05 19:58N 42°25' W 070°50'0 0.0
2018-Jul-05 19:28N 42°25' W 070°50'0 0.0
2018-Jul-05 18:58N 42°25' W 070°50'0 0.1
2018-Jul-05 18:28N 42°25' W 070°50'0 0.0
2018-Jul-05 17:58N 42°25' W 070°50'0 0.1
2018-Jul-05 17:28N 42°25' W 070°50'0 0.0
2018-Jul-05 16:55N 42°25' W 070°50'0 0.0
2018-Jul-05 16:25N 42°25' W 070°50'0 0.0
2018-Jul-05 15:58N 42°25' W 070°50'0 0.0
2018-Jul-05 15:28N 42°25' W 070°50'0 0.0
2018-Jul-05 14:58N 42°25' W 070°50'0 0.1
2018-Jul-05 13:58N 42°25' W 070°50'0 0.2
2018-Jul-05 13:28N 42°25' W 070°50'0 0.0
2018-Jul-05 12:55N 42°25' W 070°50'0 0.0
2018-Jul-05 12:19N 42°25' W 070°50'0 0.0
2018-Jul-05 11:58N 42°25' W 070°50'0 0.0
2018-Jul-05 11:28N 42°25' W 070°50'0 0.0
2018-Jul-05 10:58N 42°25' W 070°50'0 0.0
2018-Jul-05 10:28N 42°25' W 070°50'0 0.0
2018-Jul-05 09:58N 42°25' W 070°50'0 0.0
2018-Jul-05 09:28N 42°25' W 070°50'0 0.0
2018-Jul-05 08:46N 42°25' W 070°50'0 0.1
2018-Jul-05 08:25N 42°25' W 070°50'0 0.0
2018-Jul-05 07:58N 42°25' W 070°50'0 0.1
2018-Jul-05 07:25N 42°25' W 070°50'0 0.1
2018-Jul-05 06:55N 42°25' W 070°50'0 0.0
2018-Jul-05 06:28N 42°25' W 070°50'0 0.0
2018-Jul-05 05:58N 42°25' W 070°50'0 0.0
2018-Jul-05 05:28N 42°25' W 070°50'0 0.0
2018-Jul-05 04:52N 42°25' W 070°50'0 0.0
2018-Jul-05 04:28N 42°25' W 070°50'0 0.0
2018-Jul-05 03:55N 42°25' W 070°50'0 0.1
2018-Jul-05 03:25N 42°25' W 070°50'0 0.1
2018-Jul-05 02:55N 42°25' W 070°50'0 0.0
2018-Jul-05 02:28N 42°25' W 070°50'0 0.0
2018-Jul-05 01:55N 42°25' W 070°50'0 0.2
2018-Jul-05 01:28N 42°25' W 070°50'0 0.1
2018-Jul-05 00:58N 42°25' W 070°50'0 0.0
2018-Jul-05 00:28N 42°25' W 070°50'0 0.0
2018-Jul-04 23:58N 42°25' W 070°50'0 0.0
2018-Jul-04 23:28N 42°25' W 070°50'0 0.1
2018-Jul-04 22:58N 42°25' W 070°50'0 0.1
2018-Jul-04 22:28N 42°25' W 070°50'0 0.1
2018-Jul-04 21:58N 42°25' W 070°50'0 0.0
2018-Jul-04 21:28N 42°25' W 070°50'0 0.1
2018-Jul-04 20:55N 42°25' W 070°50'0 0.1
2018-Jul-04 20:28N 42°25' W 070°50'0 0.0
2018-Jul-04 19:55N 42°25' W 070°50'0 0.0
2018-Jul-04 19:25N 42°25' W 070°50'0 0.0
2018-Jul-04 18:58N 42°25' W 070°50'0 0.0
2018-Jul-04 18:28N 42°25' W 070°50'0 0.0
2018-Jul-04 17:58N 42°25' W 070°50'0 0.0
2018-Jul-04 17:28N 42°25' W 070°50'0 0.0
2018-Jul-04 16:58N 42°25' W 070°50'0 0.0
2018-Jul-04 16:25N 42°25' W 070°50'0 0.0
2018-Jul-04 15:58N 42°25' W 070°50'0 0.0
2018-Jul-04 15:28N 42°25' W 070°50'0 0.1
2018-Jul-04 14:58N 42°25' W 070°50'0 0.3
2018-Jul-04 14:28N 42°25' W 070°50'0 0.2
2018-Jul-04 13:58N 42°25' W 070°50'0 0.0
2018-Jul-04 13:28N 42°25' W 070°50'0 0.0
2018-Jul-04 12:58N 42°25' W 070°50'0 0.0
2018-Jul-04 12:28N 42°25' W 070°50'0 0.0
2018-Jul-04 11:58N 42°25' W 070°50'0 0.0
2018-Jul-04 11:28N 42°25' W 070°50'0 0.0
2018-Jul-04 10:58N 42°25' W 070°50'0 0.0
2018-Jul-04 10:28N 42°25' W 070°50'0 0.0
2018-Jul-04 09:58N 42°25' W 070°50'0 0.1
2018-Jul-04 09:28N 42°25' W 070°50'0 0.2
2018-Jul-04 08:58N 42°25' W 070°50'0 0.2
2018-Jul-04 08:28N 42°25' W 070°50'0 0.1
2018-Jul-04 07:58N 42°25' W 070°50'0 0.2
2018-Jul-04 07:28N 42°25' W 070°50'0 0.1
2018-Jul-04 06:58N 42°25' W 070°50'0 0.0
2018-Jul-04 06:28N 42°25' W 070°50'0 0.1
2018-Jul-04 05:58N 42°25' W 070°50'0 0.1
2018-Jul-04 05:28N 42°25' W 070°50'0 0.0
2018-Jul-04 04:58N 42°25' W 070°50'0 0.0
2018-Jul-04 04:28N 42°25' W 070°50'0 0.0
2018-Jul-04 03:58N 42°25' W 070°50'0 0.0
2018-Jul-04 03:25N 42°25' W 070°50'0 0.0
2018-Jul-04 02:58N 42°25' W 070°50'0 0.0
2018-Jul-04 02:25N 42°25' W 070°50'0 0.0
2018-Jul-04 01:58N 42°25' W 070°50'0 0.0
2018-Jul-04 01:28N 42°25' W 070°50'0 0.0
2018-Jul-04 00:58N 42°25' W 070°50'0 0.0
2018-Jul-04 00:28N 42°25' W 070°50'0 0.0
2018-Jul-03 23:58N 42°25' W 070°50'0 0.0
2018-Jul-03 23:28N 42°25' W 070°50'0 0.0
2018-Jul-03 22:58N 42°25' W 070°50'0 0.1
2018-Jul-03 22:28N 42°25' W 070°50'0 0.1
2018-Jul-03 22:00N 42°25' W 070°50'0 0.0
2018-Jul-03 21:30N 42°25' W 070°50'0 0.0
2018-Jul-03 21:00N 42°25' W 070°50'0 0.0
2018-Jul-03 20:30N 42°25' W 070°50'0 0.0
2018-Jul-03 20:00N 42°25' W 070°50'0 0.1
2018-Jul-03 19:30N 42°25' W 070°50'0 0.1
2018-Jul-03 19:00N 42°25' W 070°50'0 0.1
2018-Jul-03 18:30N 42°25' W 070°50'0 0.0
2018-Jul-03 17:54N 42°25' W 070°50'0 0.0
2018-Jul-03 17:30N 42°25' W 070°50'0 0.0
2018-Jul-03 17:00N 42°25' W 070°50'0 0.0
2018-Jul-03 16:30N 42°25' W 070°50'0 0.0
2018-Jul-03 16:00N 42°25' W 070°50'0 0.0
2018-Jul-03 15:30N 42°25' W 070°50'0 0.1
2018-Jul-03 15:00N 42°25' W 070°50'0 0.3
2018-Jul-03 14:30N 42°25' W 070°50'0 0.0
2018-Jul-03 14:00N 42°25' W 070°50'0 0.0
2018-Jul-03 13:27N 42°25' W 070°50'0 0.0
2018-Jul-03 13:00N 42°25' W 070°50'0 0.0
2018-Jul-03 12:30N 42°25' W 070°50'0 0.0
2018-Jul-03 12:00N 42°25' W 070°50'0 0.0
2018-Jul-03 11:30N 42°25' W 070°50'0 0.0
2018-Jul-03 11:00N 42°25' W 070°50'0 0.0
2018-Jul-03 10:30N 42°25' W 070°50'0 0.0
2018-Jul-03 10:00N 42°25' W 070°50'0 0.0
2018-Jul-03 09:30N 42°25' W 070°50'0 0.0
2018-Jul-03 09:00N 42°25' W 070°50'0 0.0
2018-Jul-03 08:28N 42°25' W 070°50'0 0.0
2018-Jul-03 07:58N 42°25' W 070°50'0 0.0
2018-Jul-03 07:28N 42°25' W 070°50'0 0.0
2018-Jul-03 06:55N 42°25' W 070°50'0 0.0
2018-Jul-03 06:28N 42°25' W 070°50'0 0.0
2018-Jul-03 05:58N 42°25' W 070°50'0 0.0
2018-Jul-03 05:25N 42°25' W 070°50'0 0.0
2018-Jul-03 04:58N 42°25' W 070°50'0 0.0
2018-Jul-03 04:28N 42°25' W 070°50'0 0.0
2018-Jul-03 03:58N 42°25' W 070°50'0 0.0
2018-Jul-03 03:28N 42°25' W 070°50'0 0.0
2018-Jul-03 02:58N 42°25' W 070°50'0 0.0
2018-Jul-03 02:28N 42°25' W 070°50'0 0.0
2018-Jul-03 01:58N 42°25' W 070°50'0 0.0
2018-Jul-03 01:25N 42°25' W 070°50'0 0.0
2018-Jul-03 00:58N 42°25' W 070°50'0 0.0
2018-Jul-03 00:28N 42°25' W 070°50'0 0.0
2018-Jul-02 23:58N 42°25' W 070°50'0 0.0
2018-Jul-02 23:28N 42°25' W 070°50'0 0.0
2018-Jul-02 22:58N 42°25' W 070°50'0 0.0
2018-Jul-02 22:25N 42°25' W 070°50'0 0.0
2018-Jul-02 21:58N 42°25' W 070°50'0 0.2
2018-Jul-02 21:25N 42°25' W 070°50'0 0.0
2018-Jul-02 20:58N 42°25' W 070°50'0 0.0
2018-Jul-02 20:28N 42°25' W 070°50'0 0.0
2018-Jul-02 19:58N 42°25' W 070°50'0 0.0
2018-Jul-02 19:28N 42°25' W 070°50'0 0.0
2018-Jul-02 18:58N 42°25' W 070°50'0 0.0
2018-Jul-02 18:28N 42°25' W 070°50'0 0.0
2018-Jul-02 17:58N 42°25' W 070°50'0 0.0
2018-Jul-02 17:28N 42°25' W 070°50'0 0.0
2018-Jul-02 16:58N 42°25' W 070°50'0 0.0
2018-Jul-02 16:28N 42°25' W 070°50'0 0.0
2018-Jul-02 15:58N 42°25' W 070°50'0 0.0
2018-Jul-02 15:28N 42°25' W 070°50'0 0.0
2018-Jul-02 14:58N 42°25' W 070°50'0 0.0
2018-Jul-02 14:28N 42°25' W 070°50'0 0.0
2018-Jul-02 13:58N 42°25' W 070°50'0 0.0
2018-Jul-02 13:28N 42°25' W 070°50'0 0.1
2018-Jul-02 12:58N 42°25' W 070°50'0 0.2
2018-Jul-02 12:28N 42°25' W 070°50'0 0.3
2018-Jul-02 11:58N 42°25' W 070°50'0 0.1
2018-Jul-02 11:28N 42°25' W 070°50'0 0.1
2018-Jul-02 10:58N 42°25' W 070°50'0 0.0
2018-Jul-02 10:25N 42°25' W 070°50'0 0.0
2018-Jul-02 09:58N 42°25' W 070°50'0 0.1
2018-Jul-02 09:28N 42°25' W 070°50'0 0.1
2018-Jul-02 08:58N 42°25' W 070°50'0 0.1
2018-Jul-02 08:28N 42°25' W 070°50'0 0.1
2018-Jul-02 07:58N 42°25' W 070°50'0 0.1
2018-Jul-02 07:29N 42°25' W 070°50'0 0.0
2018-Jul-02 06:58N 42°25' W 070°50'0 0.0
2018-Jul-02 06:30N 42°25' W 070°50'0 0.0
2018-Jul-02 06:00N 42°25' W 070°50'0 0.0
2018-Jul-02 05:30N 42°25' W 070°50'0 0.0
2018-Jul-02 05:00N 42°25' W 070°50'0 0.0
2018-Jul-02 04:28N 42°25' W 070°50'0 0.0
2018-Jul-02 04:00N 42°25' W 070°50'0 0.0
2018-Jul-02 03:30N 42°25' W 070°50'0 0.0
2018-Jul-02 03:00N 42°25' W 070°50'0 0.0
2018-Jul-02 02:30N 42°25' W 070°50'0 0.0
2018-Jul-02 02:00N 42°25' W 070°50'0 0.0
2018-Jul-02 01:30N 42°25' W 070°50'0 0.2
2018-Jul-02 01:00N 42°25' W 070°50'0 0.1
2018-Jul-02 00:30N 42°25' W 070°50'0 0.0
2018-Jul-02 00:00N 42°25' W 070°50'0 0.0
2018-Jul-01 23:28N 42°25' W 070°50'0 0.0
2018-Jul-01 23:00N 42°25' W 070°50'0 0.0
2018-Jul-01 22:30N 42°25' W 070°50'0 0.0
2018-Jul-01 22:00N 42°25' W 070°50'0 0.0
2018-Jul-01 21:24N 42°25' W 070°50'0 0.0
2018-Jul-01 20:58N 42°25' W 070°50'0 0.0
2018-Jul-01 20:30N 42°25' W 070°50'0 0.1
2018-Jul-01 20:00N 42°25' W 070°50'0 0.0
2018-Jul-01 19:30N 42°25' W 070°50'0 0.0
2018-Jul-01 19:00N 42°25' W 070°50'0 0.0
2018-Jul-01 18:30N 42°25' W 070°50'0 0.0
2018-Jul-01 17:55N 42°25' W 070°50'0 0.0
2018-Jul-01 17:30N 42°25' W 070°50'0 0.0
2018-Jul-01 16:57N 42°25' W 070°50'0 0.0
2018-Jul-01 16:30N 42°25' W 070°50'0 0.0
2018-Jul-01 16:00N 42°25' W 070°50'0 0.0
2018-Jul-01 15:30N 42°25' W 070°50'0 0.0
2018-Jul-01 15:00N 42°25' W 070°50'0 0.1
2018-Jul-01 14:30N 42°25' W 070°50'0 0.1
2018-Jul-01 14:00N 42°25' W 070°50'0 0.1
2018-Jul-01 13:30N 42°25' W 070°50'0 0.1
2018-Jul-01 13:00N 42°25' W 070°50'0 0.0
2018-Jul-01 12:30N 42°25' W 070°50'0 0.0
2018-Jul-01 12:00N 42°25' W 070°50'0 0.0
2018-Jul-01 11:30N 42°25' W 070°50'0 0.0
2018-Jul-01 11:00N 42°25' W 070°50'0 0.0
2018-Jul-01 10:30N 42°25' W 070°50'0 0.0
2018-Jul-01 10:00N 42°25' W 070°50'0 0.0
2018-Jul-01 09:30N 42°25' W 070°50'0 0.0
2018-Jul-01 09:00N 42°25' W 070°50'0 0.0
2018-Jul-01 08:30N 42°25' W 070°50'0 0.0
2018-Jul-01 08:00N 42°25' W 070°50'0 0.0
2018-Jul-01 07:30N 42°25' W 070°50'0 0.0
2018-Jul-01 07:00N 42°25' W 070°50'0 0.0
2018-Jul-01 06:30N 42°25' W 070°50'0 0.0
2018-Jul-01 06:00N 42°25' W 070°50'0 0.0
2018-Jul-01 05:30N 42°25' W 070°50'0 0.0
2018-Jul-01 05:00N 42°25' W 070°50'0 0.0
2018-Jul-01 04:30N 42°25' W 070°50'0 0.0
2018-Jul-01 04:00N 42°25' W 070°50'0 0.1
2018-Jul-01 03:30N 42°25' W 070°50'0 0.0
2018-Jul-01 02:59N 42°25' W 070°50'0 0.0
2018-Jul-01 02:29N 42°25' W 070°50'0 0.0
2018-Jul-01 01:59N 42°25' W 070°50'0 0.0
2018-Jul-01 01:29N 42°25' W 070°50'0 0.1
2018-Jul-01 00:54N 42°25' W 070°50'0 0.0
2018-Jul-01 00:30N 42°25' W 070°50'0 0.0
2018-Jul-01 00:00N 42°25' W 070°50'0 0.1
2018-Jun-30 23:29N 42°25' W 070°50'0 0.0
2018-Jun-30 22:59N 42°25' W 070°50'0 0.0
2018-Jun-30 22:29N 42°25' W 070°50'0 0.0
2018-Jun-30 21:59N 42°25' W 070°50'0 0.0
2018-Jun-30 21:27N 42°25' W 070°50'0 0.0
2018-Jun-30 20:59N 42°25' W 070°50'0 0.0
2018-Jun-30 20:29N 42°25' W 070°50'0 0.0
2018-Jun-30 19:59N 42°25' W 070°50'0 0.0
2018-Jun-30 19:29N 42°25' W 070°50'0 0.0
2018-Jun-30 18:59N 42°25' W 070°50'0 0.0
2018-Jun-30 18:29N 42°25' W 070°50'0 0.0
2018-Jun-30 17:59N 42°25' W 070°50'0 0.0
2018-Jun-30 17:30N 42°25' W 070°50'0 0.1
2018-Jun-30 17:00N 42°25' W 070°50'0 0.2
2018-Jun-30 16:29N 42°25' W 070°50'0 0.2
2018-Jun-30 16:00N 42°25' W 070°50'2 4.8
2018-Jun-30 15:30N 42°24' W 070°47'5 9.4
2018-Jun-30 15:00N 42°22' W 070°41'5 9.5
2018-Jun-30 14:30N 42°22' W 070°35'5 9.5
2018-Jun-30 14:00N 42°21' W 070°28'5 9.7
2018-Jun-30 13:30N 42°21' W 070°22'5 9.7
2018-Jun-30 13:00N 42°20' W 070°15'5 9.4
2018-Jun-30 12:30N 42°20' W 070°09'5 9.4
2018-Jun-30 12:00N 42°20' W 070°03'4 8.4
2018-Jun-30 11:30N 42°17' W 069°58'5 9.4
2018-Jun-30 11:00N 42°13' W 069°55'5 9.7
2018-Jun-30 10:30N 42°09' W 069°53'5 9.3
2018-Jun-30 10:00N 42°04' W 069°50'4 7.3
2018-Jun-30 09:30N 42°01' W 069°48'4 7.1
2018-Jun-30 09:00N 41°58' W 069°45'4 7.2
2018-Jun-30 08:30N 41°55' W 069°43'5 7.2
2018-Jun-30 07:51N 41°51' W 069°40'3 7.4
2018-Jun-30 07:28N 41°48' W 069°38'4 7.3
2018-Jun-30 06:55N 41°45' W 069°35'5 7.2
2018-Jun-30 06:10N 41°40' W 069°33'1 7.4
2018-Jun-30 06:00N 41°39' W 069°32'4 7.9
2018-Jun-30 05:29N 41°35' W 069°30'  

Dump ship's entire track history